Clarksville, Michigan
Current Conditions -  °F | °C
As of 3:34 PM on Saturday 25 Oct 2014 (Local Time) from KY70 Reporting Station
Clear Clear  
Wind Chill: 67°   Ceiling: Unl
Heat Index: 67°   Visibility: 10mi
Dew Point: 30°   Wind: 24mph
Humidity: 26%   Direction: 280°W
Pressure: 29.77"   Gusts: 31mph
Location:  42.84°N, 85.24°W
Report Text: KY70 251934Z AUTO 28021G27KT 10SM CLR 19/M01 A2977 RMK AO2 T01941009
Loading
Personal Weather Stations






























Interactive Weather Map
Tropical Storm Tracking
New forecast layout! Learn more

10-Day Weather Forecast

Advertisements
Track Severe Weather on mobile